createdAt,value
2023-04-04T05:01:16.491Z,14.26
2023-04-04T05:02:16.391Z,2.14
2023-04-04T05:03:16.433Z,2.27
2023-04-04T05:04:16.457Z,2.77
2023-04-04T05:05:16.412Z,2.51
2023-04-04T05:06:16.467Z,2.37
2023-04-04T05:07:16.423Z,2.13
2023-04-04T05:08:16.406Z,2.56
2023-04-04T05:09:16.354Z,2.47
2023-04-04T05:10:16.452Z,2.70
2023-04-04T05:11:16.349Z,2.83
2023-04-04T05:12:16.379Z,2.35
2023-04-04T05:13:16.379Z,2.71
2023-04-04T05:14:16.400Z,2.39
2023-04-04T05:15:16.368Z,2.26
2023-04-04T05:16:16.402Z,2.08
2023-04-04T05:17:16.316Z,2.50
2023-04-04T05:18:16.282Z,2.23
2023-04-04T05:19:16.444Z,2.95
2023-04-04T05:20:16.383Z,2.34
2023-04-04T05:21:16.427Z,2.67
2023-04-04T05:22:16.499Z,2.34
2023-04-04T05:23:16.537Z,2.32
2023-04-04T05:24:16.573Z,2.33
2023-04-04T05:25:16.606Z,2.52
2023-04-04T05:26:16.688Z,2.27
2023-04-04T05:27:16.719Z,2.02
2023-04-04T05:28:16.727Z,2.15
2023-04-04T05:29:16.766Z,2.58
2023-04-04T05:30:16.813Z,2.67
2023-04-04T05:31:16.887Z,2.55
2023-04-04T05:32:16.884Z,2.40
2023-04-04T05:33:16.953Z,2.61
2023-04-04T05:34:16.980Z,2.37
2023-04-04T05:35:17.049Z,2.36
2023-04-04T05:36:17.108Z,2.20
2023-04-04T05:37:17.112Z,2.51
2023-04-04T05:38:17.159Z,2.29
2023-04-04T05:39:17.126Z,2.33
2023-04-04T05:40:17.142Z,2.68
2023-04-04T05:41:17.219Z,2.33
2023-04-04T05:42:17.235Z,2.18
2023-04-04T05:43:17.271Z,2.45
2023-04-04T05:44:17.296Z,2.37
2023-04-04T05:45:17.307Z,2.57
2023-04-04T05:46:19.088Z,2.42
2023-04-04T05:47:17.373Z,2.46
2023-04-04T05:48:17.400Z,2.24
2023-04-04T05:49:17.444Z,2.25
2023-04-04T05:50:17.412Z,2.64
2023-04-04T05:51:17.461Z,2.56
2023-04-04T05:52:17.494Z,2.68
2023-04-04T05:53:17.548Z,2.74
2023-04-04T05:54:17.574Z,2.36
2023-04-04T05:55:17.549Z,2.62
2023-04-04T05:56:17.622Z,2.60
2023-04-04T05:57:17.615Z,2.58
2023-04-04T05:58:17.598Z,2.20
2023-04-04T05:59:17.808Z,2.30
2023-04-04T06:00:17.672Z,2.38
2023-04-04T06:01:17.717Z,2.60
2023-04-04T06:02:17.782Z,1.99
2023-04-04T06:03:19.676Z,2.08
2023-04-04T06:04:17.766Z,2.14
2023-04-04T06:05:17.750Z,2.39
2023-04-04T06:06:17.838Z,2.27
2023-04-04T06:07:17.760Z,1.97
2023-04-04T06:08:17.732Z,2.29
2023-04-04T06:09:17.767Z,2.50
2023-04-04T06:10:17.725Z,2.34
2023-04-04T06:11:17.758Z,2.69
2023-04-04T06:12:17.734Z,2.49
2023-04-04T06:13:17.658Z,2.58
2023-04-04T06:14:17.657Z,2.36
2023-04-04T06:15:17.635Z,2.54
2023-04-04T06:16:17.714Z,2.09
2023-04-04T06:17:17.678Z,2.02
2023-04-04T06:18:17.619Z,2.72
2023-04-04T06:19:17.942Z,2.66
2023-04-04T06:20:17.637Z,1.86
2023-04-04T06:21:17.601Z,2.47
2023-04-04T06:22:17.775Z,2.29
2023-04-04T06:23:17.680Z,2.26
2023-04-04T06:24:17.619Z,2.32
2023-04-04T06:25:17.627Z,2.69
2023-04-04T06:26:17.627Z,2.64
2023-04-04T06:27:17.603Z,2.25
2023-04-04T06:28:17.588Z,2.24
2023-04-04T06:29:17.555Z,2.31
2023-04-04T06:30:17.553Z,2.23
2023-04-04T06:31:17.641Z,2.20
2023-04-04T06:32:17.549Z,2.26
2023-04-04T06:33:17.566Z,2.24
2023-04-04T06:34:17.553Z,2.60
2023-04-04T06:35:19.970Z,2.45
2023-04-04T06:36:17.556Z,2.45
2023-04-04T06:37:17.501Z,2.59
2023-04-04T06:38:17.497Z,2.11
2023-04-04T06:39:17.494Z,1.85
2023-04-04T06:40:17.519Z,2.26
2023-04-04T06:41:17.501Z,1.98
2023-04-04T06:42:17.482Z,2.24
2023-04-04T06:43:17.671Z,2.21
2023-04-04T06:44:17.475Z,2.06
2023-04-04T06:45:17.470Z,2.11
2023-04-04T06:46:17.457Z,2.13
2023-04-04T06:47:17.436Z,2.41
2023-04-04T06:48:17.448Z,2.74
2023-04-04T06:49:17.451Z,2.36
2023-04-04T06:50:17.449Z,2.42
2023-04-04T06:51:17.409Z,2.06
2023-04-04T06:52:17.410Z,2.52
2023-04-04T06:53:17.383Z,2.22
2023-04-04T06:54:17.388Z,2.32
2023-04-04T06:55:17.475Z,2.32
2023-04-04T06:56:17.404Z,2.38
2023-04-04T06:57:17.410Z,2.17
2023-04-04T06:58:17.357Z,2.52
2023-04-04T06:59:17.461Z,2.25
2023-04-04T07:00:17.417Z,2.48
2023-04-04T07:01:17.430Z,2.46
2023-04-04T07:02:17.403Z,2.31
2023-04-04T07:03:17.402Z,2.41
2023-04-04T07:04:17.316Z,2.84
2023-04-04T07:05:17.297Z,2.54
2023-04-04T07:06:17.281Z,2.52
2023-04-04T07:07:17.290Z,2.65
2023-04-04T07:08:17.300Z,2.71
2023-04-04T07:09:28.036Z,2.96
2023-04-04T07:10:18.322Z,2.66
2023-04-04T07:11:17.297Z,2.53
2023-04-04T07:12:17.346Z,2.48
2023-04-04T07:13:17.318Z,2.45
2023-04-04T07:14:17.227Z,2.64
2023-04-04T07:15:17.246Z,2.44
2023-04-04T07:16:17.258Z,2.34
2023-04-04T07:17:24.722Z,2.30
2023-04-04T07:18:18.263Z,2.37
2023-04-04T07:19:17.292Z,2.42
2023-04-04T07:20:17.185Z,2.63
2023-04-04T07:21:17.203Z,2.80
2023-04-04T07:22:17.206Z,2.59
2023-04-04T07:23:17.235Z,2.26
2023-04-04T07:24:17.217Z,2.66
2023-04-04T07:25:17.228Z,2.65
2023-04-04T07:26:17.185Z,2.02
2023-04-04T07:27:17.159Z,2.74
2023-04-04T07:28:17.189Z,2.60
2023-04-04T07:29:17.195Z,2.50
2023-04-04T07:30:17.170Z,2.53
2023-04-04T07:31:17.157Z,2.89
2023-04-04T07:32:17.501Z,2.37
2023-04-04T07:33:17.143Z,2.36
2023-04-04T07:34:17.135Z,2.96
2023-04-04T07:35:17.106Z,2.57
2023-04-04T07:36:17.153Z,2.85
2023-04-04T07:37:17.091Z,2.28
2023-04-04T07:38:17.103Z,3.10
2023-04-04T07:39:17.090Z,2.68
2023-04-04T07:40:17.105Z,2.58
2023-04-04T07:41:17.162Z,3.08
2023-04-04T07:42:17.085Z,2.93
2023-04-04T07:43:17.112Z,3.03
2023-04-04T07:44:17.068Z,2.85
2023-04-04T07:45:17.077Z,2.77
2023-04-04T07:46:17.131Z,2.99
2023-04-04T07:47:17.039Z,2.84
2023-04-04T07:48:17.041Z,2.63
2023-04-04T07:49:17.113Z,2.98
2023-04-04T07:50:17.017Z,2.87
2023-04-04T07:51:16.988Z,2.93
2023-04-04T07:52:17.027Z,3.10
2023-04-04T07:53:16.993Z,2.93
2023-04-04T07:54:16.997Z,2.92
2023-04-04T07:55:17.110Z,2.97
2023-04-04T07:56:16.983Z,2.95
2023-04-04T07:57:17.016Z,2.51
2023-04-04T07:58:16.990Z,2.69
2023-04-04T07:59:17.078Z,3.00
2023-04-04T08:00:17.051Z,3.00
2023-04-04T08:01:17.065Z,2.78
2023-04-04T08:02:17.090Z,2.73
2023-04-04T08:03:17.181Z,2.71
2023-04-04T08:04:17.156Z,2.78
2023-04-04T08:05:17.100Z,2.72
2023-04-04T08:06:17.066Z,2.93
2023-04-04T08:07:17.074Z,3.13
2023-04-04T08:08:17.025Z,3.00
2023-04-04T08:09:17.064Z,2.85
2023-04-04T08:10:17.090Z,2.66
2023-04-04T08:11:17.062Z,2.56
2023-04-04T08:12:17.073Z,3.22
2023-04-04T08:13:17.153Z,2.92
2023-04-04T08:14:17.054Z,2.52
2023-04-04T08:15:17.088Z,2.60
2023-04-04T08:16:17.064Z,2.97
2023-04-04T08:17:17.046Z,2.97
2023-04-04T08:18:17.050Z,2.30
2023-04-04T08:19:17.084Z,3.53
2023-04-04T08:20:17.073Z,3.00
2023-04-04T08:21:17.085Z,3.08
2023-04-04T08:22:17.059Z,3.02
2023-04-04T08:23:17.016Z,2.85
2023-04-04T08:24:17.101Z,2.75
2023-04-04T08:25:17.060Z,3.02
2023-04-04T08:26:17.131Z,3.10
2023-04-04T08:27:17.105Z,3.59
2023-04-04T08:28:17.139Z,2.96
2023-04-04T08:29:17.091Z,3.43
2023-04-04T08:30:17.099Z,3.08
2023-04-04T08:31:17.175Z,2.88
2023-04-04T08:32:17.067Z,3.46
2023-04-04T08:33:17.203Z,3.56
2023-04-04T08:34:17.070Z,2.69
2023-04-04T08:35:17.102Z,2.71
2023-04-04T08:36:17.061Z,2.97
2023-04-04T08:37:17.091Z,2.90
2023-04-04T08:38:17.065Z,2.63
2023-04-04T08:39:17.133Z,2.71
2023-04-04T08:40:17.111Z,2.83
2023-04-04T08:41:17.081Z,2.79
2023-04-04T08:42:17.087Z,2.76
2023-04-04T08:43:17.074Z,2.83
2023-04-04T08:44:17.057Z,2.64
2023-04-04T08:45:17.181Z,2.56
2023-04-04T08:46:17.129Z,2.83
2023-04-04T08:47:17.307Z,2.71
2023-04-04T08:48:17.565Z,3.12
2023-04-04T08:49:17.173Z,3.12
2023-04-04T08:50:17.206Z,3.02
2023-04-04T08:51:17.258Z,3.01
2023-04-04T08:52:17.221Z,2.84
2023-04-04T08:53:17.288Z,2.41
2023-04-04T08:54:17.366Z,2.88
2023-04-04T08:55:17.356Z,2.64
2023-04-04T08:56:17.359Z,2.36
2023-04-04T08:57:17.329Z,2.27
2023-04-04T08:58:17.387Z,2.71
2023-04-04T08:59:17.496Z,2.67
2023-04-04T09:00:17.504Z,2.66
2023-04-04T09:01:17.550Z,2.66
2023-04-04T09:02:17.547Z,2.84
2023-04-04T09:03:17.565Z,2.59
2023-04-04T09:04:17.476Z,2.35
2023-04-04T09:05:17.505Z,2.12
2023-04-04T09:06:17.487Z,2.84
2023-04-04T09:07:17.497Z,2.78
2023-04-04T09:08:17.469Z,2.27
2023-04-04T09:09:17.510Z,2.09
2023-04-04T09:10:17.518Z,2.47
2023-04-04T09:11:17.467Z,2.24
2023-04-04T09:12:17.490Z,2.18
2023-04-04T09:13:17.499Z,2.80
2023-04-04T09:14:17.457Z,2.68
2023-04-04T09:15:17.512Z,3.01
2023-04-04T09:16:17.625Z,2.79
2023-04-04T09:17:17.533Z,2.75
2023-04-04T09:18:17.502Z,2.47
2023-04-04T09:19:17.498Z,1.96
2023-04-04T09:20:17.508Z,2.39
2023-04-04T09:21:17.509Z,2.69
2023-04-04T09:22:17.519Z,2.51
2023-04-04T09:23:17.513Z,2.41
2023-04-04T09:24:18.046Z,1.97
2023-04-04T09:25:17.522Z,2.74
2023-04-04T09:26:17.536Z,2.34
2023-04-04T09:27:17.522Z,2.47
2023-04-04T09:28:17.537Z,2.25
2023-04-04T09:29:17.514Z,2.05
2023-04-04T09:30:17.702Z,1.83
2023-04-04T09:31:17.532Z,2.14
2023-04-04T09:32:17.588Z,1.92
2023-04-04T09:33:17.631Z,2.51
2023-04-04T09:34:17.542Z,2.17
2023-04-04T09:35:17.526Z,2.02
2023-04-04T09:36:18.356Z,2.18
2023-04-04T09:37:17.545Z,2.45
2023-04-04T09:38:17.516Z,2.02
2023-04-04T09:39:17.568Z,2.32
2023-04-04T09:40:17.618Z,1.98
2023-04-04T09:41:17.528Z,2.37
2023-04-04T09:42:17.582Z,2.12
2023-04-04T09:43:17.540Z,2.14
2023-04-04T09:44:17.618Z,2.51
2023-04-04T09:45:29.424Z,1.97
2023-04-04T09:46:18.587Z,2.49
2023-04-04T09:47:29.561Z,1.88
2023-04-04T09:48:18.571Z,2.45
2023-04-04T09:49:17.536Z,2.15
2023-04-04T09:50:17.546Z,2.61
2023-04-04T09:51:17.562Z,2.47
2023-04-04T09:52:18.592Z,1.86
2023-04-04T09:53:17.497Z,2.25
2023-04-04T09:54:29.106Z,2.60
2023-04-04T09:55:18.052Z,2.43
2023-04-04T09:56:17.496Z,2.62
2023-04-04T09:57:17.475Z,2.52
2023-04-04T09:58:17.489Z,2.31
2023-04-04T09:59:17.545Z,2.49
2023-04-04T10:00:17.482Z,2.22
2023-04-04T10:01:17.441Z,2.41
2023-04-04T10:02:17.425Z,2.39
2023-04-04T10:03:17.420Z,2.66
2023-04-04T10:04:17.525Z,1.89
2023-04-04T10:05:17.478Z,2.38
2023-04-04T10:06:17.424Z,2.28
2023-04-04T10:07:17.391Z,2.07
2023-04-04T10:08:17.438Z,2.38
2023-04-04T10:09:17.428Z,2.33
2023-04-04T10:10:17.425Z,2.32
2023-04-04T10:11:17.416Z,2.07
2023-04-04T10:12:17.479Z,2.21
2023-04-04T10:13:17.378Z,2.11
2023-04-04T10:14:17.378Z,2.28
2023-04-04T10:15:17.339Z,2.27
2023-04-04T10:16:17.409Z,2.05
2023-04-04T10:17:17.375Z,2.10
2023-04-04T10:18:17.343Z,2.61
2023-04-04T10:19:17.375Z,2.21
2023-04-04T10:20:17.408Z,1.95
2023-04-04T10:21:17.317Z,2.04
2023-04-04T10:22:17.346Z,2.20
2023-04-04T10:23:17.353Z,2.16
2023-04-04T10:24:17.302Z,1.76
2023-04-04T10:25:17.321Z,2.18
2023-04-04T10:26:17.393Z,2.19
2023-04-04T10:27:17.572Z,1.93
2023-04-04T10:28:17.315Z,2.21
2023-04-04T10:29:17.273Z,2.02
2023-04-04T10:30:17.267Z,2.16
2023-04-04T10:31:17.389Z,1.98
2023-04-04T10:32:17.290Z,1.68
2023-04-04T10:33:17.314Z,2.04
2023-04-04T10:34:17.238Z,2.49
2023-04-04T10:35:17.274Z,2.59
2023-04-04T10:36:17.292Z,1.89
2023-04-04T10:37:17.245Z,2.16
2023-04-04T10:38:17.216Z,1.92
2023-04-04T10:39:17.220Z,2.21
2023-04-04T10:40:17.198Z,2.30
2023-04-04T10:41:17.214Z,1.90
2023-04-04T10:42:17.587Z,2.05
2023-04-04T10:43:17.215Z,2.21
2023-04-04T10:44:17.158Z,1.91
2023-04-04T10:45:21.550Z,2.10
2023-04-04T10:46:17.209Z,1.93
2023-04-04T10:47:17.163Z,2.16
2023-04-04T10:48:17.162Z,2.21
2023-04-04T10:49:17.165Z,2.03
2023-04-04T10:50:17.115Z,2.34
2023-04-04T10:51:17.150Z,1.98
2023-04-04T10:52:17.205Z,2.08
2023-04-04T10:53:17.132Z,2.26
2023-04-04T10:54:17.220Z,2.45
2023-04-04T10:55:17.120Z,1.88
2023-04-04T10:56:17.124Z,2.46
2023-04-04T10:57:17.148Z,2.28
2023-04-04T10:58:17.137Z,1.91
2023-04-04T10:59:17.162Z,2.02
2023-04-04T11:00:17.119Z,2.11
2023-04-04T11:01:17.074Z,2.08
2023-04-04T11:02:17.127Z,2.03
2023-04-04T11:03:17.073Z,1.98
2023-04-04T11:04:20.116Z,1.69
2023-04-04T11:05:17.100Z,2.23
2023-04-04T11:06:17.072Z,2.14
2023-04-04T11:07:17.147Z,1.80
2023-04-04T11:08:17.063Z,2.06
2023-04-04T11:09:16.998Z,2.17
2023-04-04T11:10:17.048Z,1.97
2023-04-04T11:11:22.412Z,1.84
2023-04-04T11:12:17.960Z,1.86
2023-04-04T11:13:16.992Z,2.02
2023-04-04T11:14:17.062Z,2.03
2023-04-04T11:15:17.013Z,2.04
2023-04-04T11:16:17.030Z,2.07
2023-04-04T11:17:16.978Z,2.37
2023-04-04T11:18:31.511Z,2.20
2023-04-04T11:19:17.935Z,1.84
2023-04-04T11:20:16.976Z,2.17
2023-04-04T11:21:16.944Z,2.06
2023-04-04T11:22:16.963Z,1.87
2023-04-04T11:23:16.944Z,1.97
2023-04-04T11:24:16.959Z,1.80
2023-04-04T11:25:16.906Z,1.99
2023-04-04T11:26:16.955Z,1.79
2023-04-04T11:27:16.949Z,2.18
2023-04-04T11:28:16.866Z,2.01
2023-04-04T11:29:16.892Z,2.14
2023-04-04T11:30:16.924Z,2.10
2023-04-04T11:31:16.870Z,2.26
2023-04-04T11:32:16.988Z,1.72
2023-04-04T11:33:16.884Z,2.18
2023-04-04T11:34:16.886Z,1.97
2023-04-04T11:35:16.850Z,1.84
2023-04-04T11:36:16.888Z,2.11
2023-04-04T11:37:16.945Z,2.05
2023-04-04T11:38:16.831Z,2.14
2023-04-04T11:39:16.909Z,1.98
2023-04-04T11:40:16.821Z,2.17
2023-04-04T11:41:16.782Z,2.31
2023-04-04T11:42:16.850Z,2.13
2023-04-04T11:43:16.787Z,1.81
2023-04-04T11:44:16.796Z,1.86
2023-04-04T11:45:16.829Z,2.32
2023-04-04T11:46:16.879Z,2.65
2023-04-04T11:47:16.771Z,1.52
2023-04-04T11:48:16.769Z,1.74
2023-04-04T11:49:16.764Z,2.20
2023-04-04T11:50:17.112Z,2.39
2023-04-04T11:51:17.108Z,1.85
2023-04-04T11:52:16.728Z,2.21
2023-04-04T11:53:16.728Z,2.02
2023-04-04T11:54:16.750Z,2.10
2023-04-04T11:55:16.755Z,2.20
2023-04-04T11:56:16.790Z,1.92
2023-04-04T11:57:16.712Z,1.87
2023-04-04T11:58:16.722Z,2.14
2023-04-04T11:59:16.733Z,2.20
2023-04-04T12:00:16.688Z,2.29
2023-04-04T12:01:16.680Z,2.06
2023-04-04T12:02:16.679Z,2.05
2023-04-04T12:03:16.809Z,2.06
2023-04-04T12:04:16.822Z,2.06
2023-04-04T12:05:16.916Z,2.13
2023-04-04T12:06:16.863Z,1.79
2023-04-04T12:07:16.815Z,2.12
2023-04-04T12:08:16.838Z,1.85
2023-04-04T12:09:16.816Z,2.02
2023-04-04T12:10:16.773Z,2.11
2023-04-04T12:11:16.801Z,2.28
2023-04-04T12:12:16.838Z,2.24
2023-04-04T12:13:16.785Z,2.16
2023-04-04T12:14:16.841Z,2.49
2023-04-04T12:15:17.772Z,1.97
2023-04-04T12:16:17.041Z,1.97
2023-04-04T12:17:17.012Z,1.82
2023-04-04T12:18:17.068Z,1.88
2023-04-04T12:19:17.165Z,1.95
2023-04-04T12:20:17.214Z,1.88
2023-04-04T12:21:17.244Z,1.71
2023-04-04T12:22:17.372Z,1.96
2023-04-04T12:23:17.350Z,2.06
2023-04-04T12:24:17.424Z,1.83
2023-04-04T12:25:17.515Z,1.87
2023-04-04T12:26:17.562Z,1.72
2023-04-04T12:27:17.629Z,2.33
2023-04-04T12:28:17.670Z,2.00
2023-04-04T12:29:17.710Z,2.12
2023-04-04T12:30:17.815Z,1.87
2023-04-04T12:31:17.848Z,2.44
2023-04-04T12:32:17.911Z,1.68
2023-04-04T12:33:17.971Z,1.85
2023-04-04T12:34:18.122Z,1.58
2023-04-04T12:35:18.072Z,1.48
2023-04-04T12:36:18.177Z,1.62
2023-04-04T12:37:18.212Z,2.18
2023-04-04T12:38:18.217Z,1.91
2023-04-04T12:39:18.293Z,1.88
2023-04-04T12:40:18.348Z,1.70
2023-04-04T12:41:18.397Z,1.67
2023-04-04T12:42:18.462Z,1.70
2023-04-04T12:43:18.535Z,1.69
2023-04-04T12:44:18.582Z,1.82
2023-04-04T12:45:18.639Z,1.86
2023-04-04T12:46:18.679Z,1.62
2023-04-04T12:47:18.751Z,1.62
2023-04-04T12:48:18.800Z,2.16
2023-04-04T12:49:18.827Z,1.46
2023-04-04T12:50:19.024Z,1.59
2023-04-04T12:51:18.979Z,1.59
2023-04-04T12:52:19.014Z,1.75
2023-04-04T12:54:20.102Z,1.82
2023-04-04T12:55:19.063Z,2.02
2023-04-04T12:56:19.080Z,1.85
2023-04-04T12:57:19.089Z,1.83
2023-04-04T12:58:19.062Z,1.49
2023-04-04T12:59:19.076Z,1.65
2023-04-04T13:00:19.134Z,1.51
2023-04-04T13:01:19.106Z,1.72
2023-04-04T13:02:19.024Z,1.79
2023-04-04T13:03:19.083Z,1.86
2023-04-04T13:04:19.032Z,1.92
2023-04-04T13:05:18.996Z,1.55
2023-04-04T13:06:19.080Z,1.78
2023-04-04T13:07:18.989Z,1.79
2023-04-04T13:08:18.984Z,1.79
2023-04-04T13:09:19.006Z,1.56
2023-04-04T13:10:19.011Z,2.24
2023-04-04T13:11:18.960Z,2.12
2023-04-04T13:12:18.952Z,1.56
2023-04-04T13:13:18.972Z,1.67
2023-04-04T13:14:19.038Z,1.94
2023-04-04T13:15:18.974Z,1.64
2023-04-04T13:16:19.066Z,1.65
2023-04-04T13:17:19.007Z,1.44
2023-04-04T13:18:19.029Z,1.86
2023-04-04T13:19:19.055Z,1.62
2023-04-04T13:20:19.092Z,1.51
2023-04-04T13:21:19.103Z,1.61
2023-04-04T13:22:19.123Z,1.56
2023-04-04T13:23:19.197Z,1.65
2023-04-04T13:24:19.270Z,1.80
2023-04-04T13:25:19.401Z,1.49
2023-04-04T13:26:19.487Z,1.64
2023-04-04T13:27:19.619Z,1.71
2023-04-04T13:28:19.688Z,1.30
2023-04-04T13:29:19.686Z,1.64
2023-04-04T13:30:19.765Z,1.84
2023-04-04T13:31:19.920Z,1.43
2023-04-04T13:32:19.652Z,1.26
2023-04-04T13:33:19.636Z,2.15
2023-04-04T13:34:19.643Z,1.77
2023-04-04T13:35:19.617Z,1.71
2023-04-04T13:36:19.603Z,1.51
2023-04-04T13:37:19.660Z,1.58
2023-04-04T13:38:19.725Z,1.75
2023-04-04T13:39:19.783Z,1.62
2023-04-04T13:40:19.853Z,1.57
2023-04-04T13:41:19.884Z,1.69
2023-04-04T13:42:19.954Z,1.59
2023-04-04T13:43:20.084Z,1.43
2023-04-04T13:44:20.081Z,1.40
2023-04-04T13:45:20.098Z,1.68
2023-04-04T13:46:20.264Z,1.53
2023-04-04T13:47:20.232Z,1.50
2023-04-04T13:48:20.255Z,1.69
2023-04-04T13:49:20.277Z,1.41
2023-04-04T13:50:21.686Z,1.65
2023-04-04T13:51:20.427Z,1.43
2023-04-04T13:52:20.483Z,1.34
2023-04-04T13:53:20.498Z,1.37
2023-04-04T13:54:20.552Z,1.54
2023-04-04T13:55:20.596Z,1.52
2023-04-04T13:56:20.803Z,1.57
2023-04-04T13:57:20.655Z,1.31
2023-04-04T13:58:20.798Z,1.73
2023-04-04T13:59:20.763Z,1.83
2023-04-04T14:00:20.747Z,1.45
2023-04-04T14:01:20.816Z,1.79
2023-04-04T14:02:20.779Z,1.35
2023-04-04T14:03:20.839Z,1.55
2023-04-04T14:04:24.144Z,1.66
2023-04-04T14:05:20.794Z,1.43
2023-04-04T14:06:20.783Z,1.49
2023-04-04T14:07:20.758Z,1.31
2023-04-04T14:08:21.217Z,1.62
2023-04-04T14:09:20.751Z,1.64
2023-04-04T14:10:20.707Z,1.54
2023-04-04T14:11:20.745Z,1.44
2023-04-04T14:12:20.708Z,1.48
2023-04-04T14:13:20.672Z,1.29
2023-04-04T14:14:20.712Z,1.82
2023-04-04T14:15:20.706Z,1.34
2023-04-04T14:16:20.760Z,1.63
2023-04-04T14:17:20.716Z,1.60
2023-04-04T14:18:20.656Z,1.57
2023-04-04T14:19:20.688Z,1.60
2023-04-04T14:20:20.691Z,1.32
2023-04-04T14:21:20.690Z,1.18
2023-04-04T14:22:20.668Z,1.54
2023-04-04T14:23:20.638Z,1.36
2023-04-04T14:24:20.643Z,1.38
2023-04-04T14:25:20.664Z,1.35
2023-04-04T14:26:20.603Z,1.27
2023-04-04T14:27:20.629Z,1.21
2023-04-04T14:28:20.646Z,1.48
2023-04-04T14:29:20.600Z,1.21
2023-04-04T14:30:20.584Z,1.28
2023-04-04T14:31:20.598Z,1.36
2023-04-04T14:32:20.608Z,1.46
2023-04-04T14:33:20.570Z,1.40
2023-04-04T14:34:20.559Z,1.24
2023-04-04T14:35:20.574Z,1.41
2023-04-04T14:36:20.541Z,1.30
2023-04-04T14:37:20.574Z,1.44
2023-04-04T14:38:20.538Z,1.22
2023-04-04T14:39:20.567Z,1.12
2023-04-04T14:40:20.563Z,1.51
2023-04-04T14:41:20.535Z,1.37
2023-04-04T14:42:20.603Z,1.50
2023-04-04T14:43:20.512Z,1.22
2023-04-04T14:44:20.553Z,1.39
2023-04-04T14:45:20.548Z,1.36
2023-04-04T14:46:20.545Z,1.31
2023-04-04T14:47:20.489Z,1.39
2023-04-04T14:48:20.512Z,1.48
2023-04-04T14:49:20.497Z,1.48
2023-04-04T14:50:20.498Z,1.23
2023-04-04T14:51:20.478Z,1.34
2023-04-04T14:52:20.483Z,1.38
2023-04-04T14:53:20.455Z,1.14
2023-04-04T14:54:20.500Z,1.14
2023-04-04T14:55:20.514Z,1.35
2023-04-04T14:57:20.519Z,1.03
2023-04-04T14:58:20.595Z,1.34
2023-04-04T14:59:20.683Z,0.86
2023-04-04T15:00:20.732Z,1.18
2023-04-04T15:01:20.835Z,1.17
2023-04-04T15:02:20.853Z,1.01
2023-04-04T15:03:20.852Z,1.19
2023-04-04T15:04:20.918Z,1.39
2023-04-04T15:05:20.933Z,1.28
2023-04-04T15:06:21.193Z,1.01
2023-04-04T15:07:21.069Z,1.25
2023-04-04T15:08:21.127Z,1.18
2023-04-04T15:09:21.196Z,1.35
2023-04-04T15:10:21.222Z,1.29
2023-04-04T15:11:21.250Z,1.50
2023-04-04T15:12:21.267Z,1.25
2023-04-04T15:13:21.282Z,1.34
2023-04-04T15:14:21.392Z,1.36
2023-04-04T15:15:23.149Z,1.64
2023-04-04T15:16:21.447Z,1.32
2023-04-04T15:17:21.456Z,1.14
2023-04-04T15:18:21.490Z,1.34
2023-04-04T15:19:21.508Z,1.00
2023-04-04T15:20:21.554Z,1.12
2023-04-04T15:21:21.505Z,1.30
2023-04-04T15:22:21.604Z,1.25
2023-04-04T15:23:21.549Z,1.39
2023-04-04T15:24:21.571Z,1.30
2023-04-04T15:25:21.629Z,1.21
2023-04-04T15:26:21.672Z,0.93
2023-04-04T15:27:21.747Z,1.17
2023-04-04T15:28:21.770Z,1.29
2023-04-04T15:29:21.794Z,1.12
2023-04-04T15:30:21.868Z,1.11
2023-04-04T15:31:21.892Z,1.28
2023-04-04T15:32:21.966Z,1.11
2023-04-04T15:33:22.045Z,1.19
2023-04-04T15:34:22.018Z,1.04
2023-04-04T15:35:22.155Z,1.20
2023-04-04T15:36:22.160Z,1.31
2023-04-04T15:37:22.246Z,1.26
2023-04-04T15:38:22.617Z,1.25
2023-04-04T15:39:22.341Z,1.23
2023-04-04T15:40:22.410Z,1.42
2023-04-04T15:41:22.411Z,1.38
2023-04-04T15:42:22.449Z,1.44
2023-04-04T15:43:22.436Z,1.33
2023-04-04T15:44:22.456Z,1.09
2023-04-04T15:45:22.482Z,1.19
2023-04-04T15:46:22.465Z,1.27
2023-04-04T15:47:22.594Z,1.37
2023-04-04T15:48:22.464Z,1.13
2023-04-04T15:49:22.492Z,1.08
2023-04-04T15:50:22.517Z,1.17
2023-04-04T15:51:22.488Z,1.07
2023-04-04T15:52:22.533Z,1.24
2023-04-04T15:53:22.482Z,1.53
2023-04-04T15:54:22.524Z,1.79
2023-04-04T15:55:22.481Z,1.09
2023-04-04T15:56:22.529Z,1.17
2023-04-04T15:57:22.622Z,1.21
2023-04-04T15:58:22.553Z,1.14
2023-04-04T15:59:22.546Z,1.21
2023-04-04T16:00:22.617Z,1.47
2023-04-04T16:01:22.595Z,1.14
2023-04-04T16:02:22.736Z,1.28
2023-04-04T16:03:22.756Z,1.07
2023-04-04T16:04:22.698Z,1.11
2023-04-04T16:05:22.720Z,1.28
2023-04-04T16:06:22.742Z,1.24
2023-04-04T16:07:22.807Z,0.82
2023-04-04T16:08:22.790Z,1.12
2023-04-04T16:09:22.810Z,1.58
2023-04-04T16:10:22.856Z,1.01
2023-04-04T16:11:22.868Z,1.19
2023-04-04T16:12:22.961Z,1.24
2023-04-04T16:13:22.955Z,1.28
2023-04-04T16:14:23.052Z,1.25
2023-04-04T16:15:22.951Z,1.20
2023-04-04T16:16:23.069Z,1.16
2023-04-04T16:17:22.921Z,1.05
2023-04-04T16:18:22.920Z,1.41
2023-04-04T16:19:22.980Z,1.29
2023-04-04T16:20:22.884Z,1.09
2023-04-04T16:21:22.905Z,1.24
2023-04-04T16:22:22.901Z,1.57
2023-04-04T16:23:22.888Z,1.32
2023-04-04T16:24:22.919Z,1.52
2023-04-04T16:25:22.887Z,1.25
2023-04-04T16:26:22.880Z,1.19
2023-04-04T16:27:22.972Z,1.47
2023-04-04T16:28:23.027Z,1.17
2023-04-04T16:29:23.060Z,1.24
2023-04-04T16:30:23.118Z,1.70
2023-04-04T16:31:23.091Z,1.19
2023-04-04T16:32:23.081Z,1.32
2023-04-04T16:33:23.023Z,1.22
2023-04-04T16:34:23.037Z,1.25
2023-04-04T16:35:23.068Z,1.30
2023-04-04T16:36:23.073Z,0.98
2023-04-04T16:37:23.055Z,1.14
2023-04-04T16:38:23.044Z,1.23
2023-04-04T16:39:23.042Z,1.32
2023-04-04T16:40:23.120Z,1.48
2023-04-04T16:41:23.151Z,1.47
2023-04-04T16:42:23.241Z,1.63
2023-04-04T16:43:23.284Z,1.40
2023-04-04T16:44:23.318Z,1.44
2023-04-04T16:45:23.437Z,1.21
2023-04-04T16:46:23.470Z,1.40
2023-04-04T16:47:23.840Z,1.27
2023-04-04T16:48:23.582Z,1.44
2023-04-04T16:49:23.662Z,1.22
2023-04-04T16:50:23.714Z,1.18
2023-04-04T16:51:23.767Z,1.34
2023-04-04T16:52:23.791Z,1.29
2023-04-04T16:53:23.855Z,1.60
2023-04-04T16:54:23.914Z,1.51
2023-04-04T16:55:23.991Z,1.84
2023-04-04T16:56:24.051Z,1.38
2023-04-04T16:57:24.195Z,1.34
2023-04-04T16:58:24.179Z,1.31
2023-04-04T16:59:24.237Z,1.45
2023-04-04T17:00:31.745Z,1.72
